Ds Blue Wave — A8YK2 — position and weather

sailwx.info

Track history (hours):
 
Tides and Currents Weather Stations Pressure Air Temp Water Temp Dewpoint Dewpoint Depression Visibility Wind Speed Wind Dir Waves Ship Positions

Ds Blue Wave

Last reported at 2017-Oct-16 17:05 UTC. Time now 2017-Nov-20 09:51 UTC.
Position N 34°04' E 134°58'.
Warning: this ship's position is 34 days out of date.

Length 129 m; draft 7.1 m.

Type: Cargo ship. MMSI: 636092200.

Date/timePositionNaut miles runAvg speedWind from/ knotsBaromVisibWave heightAir tempDewpointWater temp
2017-Oct-16 17:05N 34°04' E 134°58'717.3
2017-Oct-16 16:40N 34°11' E 134°58'1117.9
2017-Oct-16 16:03N 34°22' E 135°00'317.5
2017-Oct-16 15:53N 34°25' E 135°02'617.0
2017-Oct-16 15:30N 34°31' E 135°04'  
2017-Oct-07 03:32N 33°60' E 134°58'115.7
2017-Oct-07 03:27N 34°01' E 134°58'2514.9
2017-Oct-07 01:49N 34°25' E 135°02'516.1
2017-Oct-07 01:30N 34°30' E 135°03'  
Track history (hours):
 
Tides and Currents Weather Stations Pressure Air Temp Water Temp Dewpoint Dewpoint Depression Visibility Wind Speed Wind Dir Waves Ship Positions

Ds Blue Wave

Last reported at 2017-Oct-16 17:05 UTC. Time now 2017-Nov-20 09:51 UTC.
Position N 34°04' E 134°58'.
Warning: this ship's position is 34 days out of date.

Length 129 m; draft 7.1 m.

Type: Cargo ship. MMSI: 636092200.

Date/timePositionNaut miles runAvg speedWind from/ knotsBaromVisibWave heightAir tempDewpointWater temp
2017-Oct-16 17:05N 34°04' E 134°58'717.3
2017-Oct-16 16:40N 34°11' E 134°58'1117.9
2017-Oct-16 16:03N 34°22' E 135°00'317.5
2017-Oct-16 15:53N 34°25' E 135°02'617.0
2017-Oct-16 15:30N 34°31' E 135°04'  
2017-Oct-07 03:32N 33°60' E 134°58'115.7
2017-Oct-07 03:27N 34°01' E 134°58'2514.9
2017-Oct-07 01:49N 34°25' E 135°02'516.1
2017-Oct-07 01:30N 34°30' E 135°03'  

Dump ship's entire track history